sensor_id;sensor_type;location;lat;lon;timestamp;P1;durP1;ratioP1;P2;durP2;ratioP2
19946;SDS011;10135;50.702;7.276;2022-08-03T00:01:45;1.85;;;1.85;;
19946;SDS011;10135;50.702;7.276;2022-08-03T00:03:45;1.80;;;1.70;;
19946;SDS011;10135;50.702;7.276;2022-08-03T00:05:46;1.50;;;1.50;;
19946;SDS011;10135;50.702;7.276;2022-08-03T00:07:46;1.75;;;1.65;;
19946;SDS011;10135;50.702;7.276;2022-08-03T00:09:47;1.80;;;1.70;;
19946;SDS011;10135;50.702;7.276;2022-08-03T00:11:49;1.80;;;1.70;;
19946;SDS011;10135;50.702;7.276;2022-08-03T00:13:49;1.98;;;1.77;;
19946;SDS011;10135;50.702;7.276;2022-08-03T00:15:50;2.38;;;1.80;;
19946;SDS011;10135;50.702;7.276;2022-08-03T00:17:52;1.70;;;1.70;;
19946;SDS011;10135;50.702;7.276;2022-08-03T00:19:52;2.00;;;1.90;;
19946;SDS011;10135;50.702;7.276;2022-08-03T00:21:53;2.20;;;1.77;;
19946;SDS011;10135;50.702;7.276;2022-08-03T00:23:53;2.38;;;1.90;;
19946;SDS011;10135;50.702;7.276;2022-08-03T00:25:54;1.73;;;1.63;;
19946;SDS011;10135;50.702;7.276;2022-08-03T00:27:56;3.10;;;1.95;;
19946;SDS011;10135;50.702;7.276;2022-08-03T00:29:57;2.00;;;1.90;;
19946;SDS011;10135;50.702;7.276;2022-08-03T00:31:57;2.03;;;1.88;;
19946;SDS011;10135;50.702;7.276;2022-08-03T00:33:58;2.00;;;1.90;;
19946;SDS011;10135;50.702;7.276;2022-08-03T00:35:59;2.35;;;1.90;;
19946;SDS011;10135;50.702;7.276;2022-08-03T00:37:59;2.40;;;2.30;;
19946;SDS011;10135;50.702;7.276;2022-08-03T00:40:00;2.10;;;1.70;;
19946;SDS011;10135;50.702;7.276;2022-08-03T00:42:01;1.80;;;1.70;;
19946;SDS011;10135;50.702;7.276;2022-08-03T00:44:03;2.00;;;1.85;;
19946;SDS011;10135;50.702;7.276;2022-08-03T00:46:04;1.95;;;1.85;;
19946;SDS011;10135;50.702;7.276;2022-08-03T00:48:06;2.05;;;1.95;;
19946;SDS011;10135;50.702;7.276;2022-08-03T00:50:08;1.73;;;1.67;;
19946;SDS011;10135;50.702;7.276;2022-08-03T00:52:10;1.75;;;1.65;;
19946;SDS011;10135;50.702;7.276;2022-08-03T00:54:13;1.83;;;1.70;;
19946;SDS011;10135;50.702;7.276;2022-08-03T00:56:15;2.08;;;1.98;;
19946;SDS011;10135;50.702;7.276;2022-08-03T00:58:16;2.05;;;1.92;;
19946;SDS011;10135;50.702;7.276;2022-08-03T01:00:18;2.38;;;2.00;;
19946;SDS011;10135;50.702;7.276;2022-08-03T01:02:22;4.53;;;1.90;;
19946;SDS011;10135;50.702;7.276;2022-08-03T01:04:23;1.70;;;1.70;;
19946;SDS011;10135;50.702;7.276;2022-08-03T01:06:31;2.30;;;1.65;;
19946;SDS011;10135;50.702;7.276;2022-08-03T01:08:53;1.90;;;1.80;;
19946;SDS011;10135;50.702;7.276;2022-08-03T01:11:16;1.90;;;1.80;;
19946;SDS011;10135;50.702;7.276;2022-08-03T01:13:45;2.40;;;2.30;;
19946;SDS011;10135;50.702;7.276;2022-08-03T01:16:02;1.85;;;1.85;;
19946;SDS011;10135;50.702;7.276;2022-08-03T01:18:13;2.08;;;1.98;;
19946;SDS011;10135;50.702;7.276;2022-08-03T01:20:44;2.00;;;1.90;;
19946;SDS011;10135;50.702;7.276;2022-08-03T01:27:56;3.63;;;1.80;;
19946;SDS011;10135;50.702;7.276;2022-08-03T01:30:39;2.67;;;1.90;;
19946;SDS011;10135;50.702;7.276;2022-08-03T01:32:51;1.90;;;1.88;;
19946;SDS011;10135;50.702;7.276;2022-08-03T01:35:02;1.90;;;1.80;;
19946;SDS011;10135;50.702;7.276;2022-08-03T01:37:08;2.10;;;2.00;;
19946;SDS011;10135;50.702;7.276;2022-08-03T01:39:13;1.98;;;1.88;;
19946;SDS011;10135;50.702;7.276;2022-08-03T01:41:18;1.80;;;1.70;;
19946;SDS011;10135;50.702;7.276;2022-08-03T01:43:25;1.95;;;1.85;;
19946;SDS011;10135;50.702;7.276;2022-08-03T01:45:29;1.60;;;1.60;;
19946;SDS011;10135;50.702;7.276;2022-08-03T01:47:31;2.15;;;2.05;;
19946;SDS011;10135;50.702;7.276;2022-08-03T01:49:37;2.20;;;2.10;;
19946;SDS011;10135;50.702;7.276;2022-08-03T01:51:44;2.15;;;2.05;;
19946;SDS011;10135;50.702;7.276;2022-08-03T01:53:48;1.95;;;1.80;;
19946;SDS011;10135;50.702;7.276;2022-08-03T01:55:51;2.65;;;1.90;;
19946;SDS011;10135;50.702;7.276;2022-08-03T01:57:55;1.90;;;1.80;;
19946;SDS011;10135;50.702;7.276;2022-08-03T01:59:57;1.85;;;1.75;;
19946;SDS011;10135;50.702;7.276;2022-08-03T02:02:01;1.70;;;1.70;;
19946;SDS011;10135;50.702;7.276;2022-08-03T02:04:04;3.55;;;2.10;;
19946;SDS011;10135;50.702;7.276;2022-08-03T02:06:11;1.70;;;1.70;;
19946;SDS011;10135;50.702;7.276;2022-08-03T02:08:14;1.80;;;1.80;;
19946;SDS011;10135;50.702;7.276;2022-08-03T02:10:18;2.10;;;2.00;;
19946;SDS011;10135;50.702;7.276;2022-08-03T02:12:21;2.00;;;1.90;;
19946;SDS011;10135;50.702;7.276;2022-08-03T02:14:25;2.22;;;2.10;;
19946;SDS011;10135;50.702;7.276;2022-08-03T02:16:28;2.20;;;2.00;;
19946;SDS011;10135;50.702;7.276;2022-08-03T02:18:33;2.15;;;2.05;;
19946;SDS011;10135;50.702;7.276;2022-08-03T02:20:38;2.00;;;1.92;;
19946;SDS011;10135;50.702;7.276;2022-08-03T02:22:42;1.95;;;1.95;;
19946;SDS011;10135;50.702;7.276;2022-08-03T02:24:44;2.55;;;1.80;;
19946;SDS011;10135;50.702;7.276;2022-08-03T02:26:45;3.28;;;2.17;;
19946;SDS011;10135;50.702;7.276;2022-08-03T02:28:51;2.03;;;2.00;;
19946;SDS011;10135;50.702;7.276;2022-08-03T02:30:55;2.00;;;1.90;;
19946;SDS011;10135;50.702;7.276;2022-08-03T02:32:57;2.22;;;2.00;;
19946;SDS011;10135;50.702;7.276;2022-08-03T02:35:00;2.05;;;1.95;;
19946;SDS011;10135;50.702;7.276;2022-08-03T02:37:04;2.13;;;1.80;;
19946;SDS011;10135;50.702;7.276;2022-08-03T02:39:09;1.95;;;1.92;;
19946;SDS011;10135;50.702;7.276;2022-08-03T02:41:15;2.10;;;2.00;;
19946;SDS011;10135;50.702;7.276;2022-08-03T02:43:23;2.10;;;1.90;;
19946;SDS011;10135;50.702;7.276;2022-08-03T02:45:25;1.90;;;1.80;;
19946;SDS011;10135;50.702;7.276;2022-08-03T02:47:28;2.00;;;1.90;;
19946;SDS011;10135;50.702;7.276;2022-08-03T02:49:30;1.73;;;1.70;;
19946;SDS011;10135;50.702;7.276;2022-08-03T02:51:34;2.33;;;2.13;;
19946;SDS011;10135;50.702;7.276;2022-08-03T02:53:37;2.63;;;2.20;;
19946;SDS011;10135;50.702;7.276;2022-08-03T02:55:39;2.00;;;1.90;;
19946;SDS011;10135;50.702;7.276;2022-08-03T02:57:41;2.00;;;1.95;;
19946;SDS011;10135;50.702;7.276;2022-08-03T02:59:46;2.08;;;1.95;;
19946;SDS011;10135;50.702;7.276;2022-08-03T03:01:48;2.28;;;2.00;;
19946;SDS011;10135;50.702;7.276;2022-08-03T03:03:50;2.10;;;2.00;;
19946;SDS011;10135;50.702;7.276;2022-08-03T03:05:53;1.98;;;1.98;;
19946;SDS011;10135;50.702;7.276;2022-08-03T03:07:55;2.20;;;2.10;;
19946;SDS011;10135;50.702;7.276;2022-08-03T03:09:57;1.80;;;1.80;;
19946;SDS011;10135;50.702;7.276;2022-08-03T03:11:59;2.75;;;2.00;;
19946;SDS011;10135;50.702;7.276;2022-08-03T03:14:01;2.00;;;2.00;;
19946;SDS011;10135;50.702;7.276;2022-08-03T03:16:05;2.20;;;2.10;;
19946;SDS011;10135;50.702;7.276;2022-08-03T03:18:07;2.20;;;2.10;;
19946;SDS011;10135;50.702;7.276;2022-08-03T03:20:10;2.22;;;2.13;;
19946;SDS011;10135;50.702;7.276;2022-08-03T03:22:11;2.17;;;2.15;;
19946;SDS011;10135;50.702;7.276;2022-08-03T03:24:14;2.75;;;2.33;;
19946;SDS011;10135;50.702;7.276;2022-08-03T03:26:15;2.17;;;2.08;;
19946;SDS011;10135;50.702;7.276;2022-08-03T03:28:17;3.28;;;2.40;;
19946;SDS011;10135;50.702;7.276;2022-08-03T03:30:18;2.25;;;2.10;;
19946;SDS011;10135;50.702;7.276;2022-08-03T03:32:19;2.33;;;2.22;;
19946;SDS011;10135;50.702;7.276;2022-08-03T03:34:20;2.00;;;1.90;;
19946;SDS011;10135;50.702;7.276;2022-08-03T03:36:20;2.20;;;2.10;;
19946;SDS011;10135;50.702;7.276;2022-08-03T03:38:21;1.95;;;1.90;;
19946;SDS011;10135;50.702;7.276;2022-08-03T03:40:22;2.33;;;2.10;;
19946;SDS011;10135;50.702;7.276;2022-08-03T03:42:24;2.05;;;1.95;;
19946;SDS011;10135;50.702;7.276;2022-08-03T03:44:26;2.33;;;2.17;;
19946;SDS011;10135;50.702;7.276;2022-08-03T03:46:28;2.13;;;2.03;;
19946;SDS011;10135;50.702;7.276;2022-08-03T03:48:28;2.20;;;2.10;;
19946;SDS011;10135;50.702;7.276;2022-08-03T03:50:30;6.40;;;2.45;;
19946;SDS011;10135;50.702;7.276;2022-08-03T03:52:33;1.90;;;1.90;;
19946;SDS011;10135;50.702;7.276;2022-08-03T03:54:40;3.35;;;2.40;;
19946;SDS011;10135;50.702;7.276;2022-08-03T03:56:42;6.97;;;1.88;;
19946;SDS011;10135;50.702;7.276;2022-08-03T03:58:43;1.90;;;1.90;;
19946;SDS011;10135;50.702;7.276;2022-08-03T04:00:44;2.40;;;2.30;;
19946;SDS011;10135;50.702;7.276;2022-08-03T04:02:44;2.38;;;2.00;;
19946;SDS011;10135;50.702;7.276;2022-08-03T04:04:46;3.03;;;2.00;;
19946;SDS011;10135;50.702;7.276;2022-08-03T04:07:05;1.98;;;1.98;;
19946;SDS011;10135;50.702;7.276;2022-08-03T04:09:24;2.00;;;1.90;;
19946;SDS011;10135;50.702;7.276;2022-08-03T04:11:46;2.05;;;1.75;;
19946;SDS011;10135;50.702;7.276;2022-08-03T04:14:42;2.47;;;2.38;;
19946;SDS011;10135;50.702;7.276;2022-08-03T04:16:26;1.73;;;1.73;;
19946;SDS011;10135;50.702;7.276;2022-08-03T04:18:33;2.08;;;1.98;;
19946;SDS011;10135;50.702;7.276;2022-08-03T04:20:36;2.13;;;2.03;;
19946;SDS011;10135;50.702;7.276;2022-08-03T04:22:41;2.28;;;2.17;;
19946;SDS011;10135;50.702;7.276;2022-08-03T04:24:42;2.40;;;2.25;;
19946;SDS011;10135;50.702;7.276;2022-08-03T04:26:56;2.13;;;2.03;;
19946;SDS011;10135;50.702;7.276;2022-08-03T04:28:59;2.65;;;2.40;;
19946;SDS011;10135;50.702;7.276;2022-08-03T04:31:02;2.20;;;2.10;;
19946;SDS011;10135;50.702;7.276;2022-08-03T04:33:05;2.65;;;2.20;;
19946;SDS011;10135;50.702;7.276;2022-08-03T04:35:07;2.28;;;2.15;;
19946;SDS011;10135;50.702;7.276;2022-08-03T04:37:13;1.98;;;1.98;;
19946;SDS011;10135;50.702;7.276;2022-08-03T04:39:41;2.10;;;2.00;;
19946;SDS011;10135;50.702;7.276;2022-08-03T04:41:43;3.10;;;2.20;;
19946;SDS011;10135;50.702;7.276;2022-08-03T04:43:46;2.20;;;2.10;;
19946;SDS011;10135;50.702;7.276;2022-08-03T04:45:50;2.00;;;1.83;;
19946;SDS011;10135;50.702;7.276;2022-08-03T04:47:53;2.30;;;2.13;;
19946;SDS011;10135;50.702;7.276;2022-08-03T04:49:54;2.10;;;2.00;;
19946;SDS011;10135;50.702;7.276;2022-08-03T04:51:55;1.90;;;1.90;;
19946;SDS011;10135;50.702;7.276;2022-08-03T04:53:55;2.13;;;2.00;;
19946;SDS011;10135;50.702;7.276;2022-08-03T04:56:02;2.05;;;2.00;;
19946;SDS011;10135;50.702;7.276;2022-08-03T04:58:04;2.13;;;2.03;;
19946;SDS011;10135;50.702;7.276;2022-08-03T05:00:05;2.30;;;2.20;;
19946;SDS011;10135;50.702;7.276;2022-08-03T05:02:06;2.15;;;2.05;;
19946;SDS011;10135;50.702;7.276;2022-08-03T05:04:07;2.35;;;2.25;;
19946;SDS011;10135;50.702;7.276;2022-08-03T05:06:08;2.70;;;2.50;;
19946;SDS011;10135;50.702;7.276;2022-08-03T05:08:09;2.28;;;2.10;;
19946;SDS011;10135;50.702;7.276;2022-08-03T05:10:10;2.97;;;2.13;;
19946;SDS011;10135;50.702;7.276;2022-08-03T05:12:12;2.50;;;2.03;;
19946;SDS011;10135;50.702;7.276;2022-08-03T05:14:12;2.03;;;1.92;;
19946;SDS011;10135;50.702;7.276;2022-08-03T05:16:13;4.93;;;2.50;;
19946;SDS011;10135;50.702;7.276;2022-08-03T05:18:14;6.93;;;2.50;;
19946;SDS011;10135;50.702;7.276;2022-08-03T05:20:14;3.95;;;2.33;;
19946;SDS011;10135;50.702;7.276;2022-08-03T05:22:15;3.38;;;2.35;;
19946;SDS011;10135;50.702;7.276;2022-08-03T05:24:16;2.58;;;2.38;;
19946;SDS011;10135;50.702;7.276;2022-08-03T05:26:16;2.42;;;2.22;;
19946;SDS011;10135;50.702;7.276;2022-08-03T05:28:17;2.40;;;2.20;;
19946;SDS011;10135;50.702;7.276;2022-08-03T05:30:18;2.38;;;2.28;;
19946;SDS011;10135;50.702;7.276;2022-08-03T05:32:18;4.13;;;2.17;;
19946;SDS011;10135;50.702;7.276;2022-08-03T05:34:19;3.90;;;2.10;;
19946;SDS011;10135;50.702;7.276;2022-08-03T05:36:20;2.50;;;2.20;;
19946;SDS011;10135;50.702;7.276;2022-08-03T05:38:20;5.20;;;2.50;;
19946;SDS011;10135;50.702;7.276;2022-08-03T05:40:21;2.50;;;2.30;;
19946;SDS011;10135;50.702;7.276;2022-08-03T05:42:22;2.35;;;2.25;;
19946;SDS011;10135;50.702;7.276;2022-08-03T05:44:23;2.25;;;2.10;;
19946;SDS011;10135;50.702;7.276;2022-08-03T05:46:24;2.78;;;2.15;;
19946;SDS011;10135;50.702;7.276;2022-08-03T05:48:25;2.30;;;2.20;;
19946;SDS011;10135;50.702;7.276;2022-08-03T05:50:25;2.58;;;2.30;;
19946;SDS011;10135;50.702;7.276;2022-08-03T05:52:26;7.13;;;2.50;;
19946;SDS011;10135;50.702;7.276;2022-08-03T05:54:27;3.13;;;2.80;;
19946;SDS011;10135;50.702;7.276;2022-08-03T05:56:27;3.63;;;2.40;;
19946;SDS011;10135;50.702;7.276;2022-08-03T05:58:28;2.67;;;2.40;;
19946;SDS011;10135;50.702;7.276;2022-08-03T06:00:29;2.22;;;2.03;;
19946;SDS011;10135;50.702;7.276;2022-08-03T06:02:30;3.17;;;2.33;;
19946;SDS011;10135;50.702;7.276;2022-08-03T06:04:30;2.63;;;2.42;;
19946;SDS011;10135;50.702;7.276;2022-08-03T06:06:31;4.22;;;2.20;;
19946;SDS011;10135;50.702;7.276;2022-08-03T06:08:33;4.28;;;2.25;;
19946;SDS011;10135;50.702;7.276;2022-08-03T06:10:34;2.22;;;2.13;;
19946;SDS011;10135;50.702;7.276;2022-08-03T06:12:34;2.30;;;2.10;;
19946;SDS011;10135;50.702;7.276;2022-08-03T06:14:35;7.13;;;2.20;;
19946;SDS011;10135;50.702;7.276;2022-08-03T06:16:36;3.65;;;2.30;;
19946;SDS011;10135;50.702;7.276;2022-08-03T06:18:36;2.20;;;2.10;;
19946;SDS011;10135;50.702;7.276;2022-08-03T06:20:38;2.55;;;2.13;;
19946;SDS011;10135;50.702;7.276;2022-08-03T06:22:38;3.80;;;2.20;;
19946;SDS011;10135;50.702;7.276;2022-08-03T06:24:39;2.50;;;2.30;;
19946;SDS011;10135;50.702;7.276;2022-08-03T06:26:39;3.72;;;2.15;;
19946;SDS011;10135;50.702;7.276;2022-08-03T06:28:40;2.10;;;2.00;;
19946;SDS011;10135;50.702;7.276;2022-08-03T06:30:44;4.30;;;2.30;;
19946;SDS011;10135;50.702;7.276;2022-08-03T06:32:45;3.70;;;2.17;;
19946;SDS011;10135;50.702;7.276;2022-08-03T06:34:46;3.25;;;2.20;;
19946;SDS011;10135;50.702;7.276;2022-08-03T06:36:46;2.42;;;2.20;;
19946;SDS011;10135;50.702;7.276;2022-08-03T06:38:49;2.67;;;2.28;;
19946;SDS011;10135;50.702;7.276;2022-08-03T06:40:50;4.93;;;2.50;;
19946;SDS011;10135;50.702;7.276;2022-08-03T06:42:51;4.45;;;2.30;;
19946;SDS011;10135;50.702;7.276;2022-08-03T06:44:51;2.88;;;2.40;;
19946;SDS011;10135;50.702;7.276;2022-08-03T06:46:52;2.40;;;2.17;;
19946;SDS011;10135;50.702;7.276;2022-08-03T06:48:53;2.22;;;2.03;;
19946;SDS011;10135;50.702;7.276;2022-08-03T06:50:55;4.32;;;2.35;;
19946;SDS011;10135;50.702;7.276;2022-08-03T06:52:56;3.40;;;2.50;;
19946;SDS011;10135;50.702;7.276;2022-08-03T06:54:57;2.08;;;1.98;;
19946;SDS011;10135;50.702;7.276;2022-08-03T06:56:58;2.38;;;2.03;;
19946;SDS011;10135;50.702;7.276;2022-08-03T06:58:58;3.15;;;2.08;;
19946;SDS011;10135;50.702;7.276;2022-08-03T07:00:59;2.47;;;2.28;;
19946;SDS011;10135;50.702;7.276;2022-08-03T07:03:00;4.50;;;2.10;;
19946;SDS011;10135;50.702;7.276;2022-08-03T07:05:00;3.03;;;2.20;;
19946;SDS011;10135;50.702;7.276;2022-08-03T07:07:01;2.03;;;1.92;;
19946;SDS011;10135;50.702;7.276;2022-08-03T07:09:02;2.30;;;2.20;;
19946;SDS011;10135;50.702;7.276;2022-08-03T07:11:03;2.88;;;2.10;;
19946;SDS011;10135;50.702;7.276;2022-08-03T07:13:05;2.10;;;2.00;;
19946;SDS011;10135;50.702;7.276;2022-08-03T07:15:06;2.95;;;2.10;;
19946;SDS011;10135;50.702;7.276;2022-08-03T07:17:07;2.20;;;2.10;;
19946;SDS011;10135;50.702;7.276;2022-08-03T07:19:08;2.63;;;2.40;;
19946;SDS011;10135;50.702;7.276;2022-08-03T07:21:08;2.35;;;2.15;;
19946;SDS011;10135;50.702;7.276;2022-08-03T07:23:09;5.18;;;2.10;;
19946;SDS011;10135;50.702;7.276;2022-08-03T07:25:10;2.30;;;2.10;;
19946;SDS011;10135;50.702;7.276;2022-08-03T07:27:11;2.60;;;1.92;;
19946;SDS011;10135;50.702;7.276;2022-08-03T07:29:11;2.50;;;2.30;;
19946;SDS011;10135;50.702;7.276;2022-08-03T07:31:12;1.83;;;1.73;;
19946;SDS011;10135;50.702;7.276;2022-08-03T07:33:13;4.05;;;2.10;;
19946;SDS011;10135;50.702;7.276;2022-08-03T07:35:14;5.32;;;2.78;;
19946;SDS011;10135;50.702;7.276;2022-08-03T07:37:14;3.25;;;2.20;;
19946;SDS011;10135;50.702;7.276;2022-08-03T07:39:15;2.13;;;1.90;;
19946;SDS011;10135;50.702;7.276;2022-08-03T07:41:16;1.83;;;1.83;;
19946;SDS011;10135;50.702;7.276;2022-08-03T07:43:16;2.22;;;2.00;;
19946;SDS011;10135;50.702;7.276;2022-08-03T07:45:17;2.10;;;2.00;;
19946;SDS011;10135;50.702;7.276;2022-08-03T07:47:18;2.90;;;2.05;;
19946;SDS011;10135;50.702;7.276;2022-08-03T07:49:24;2.22;;;2.10;;
19946;SDS011;10135;50.702;7.276;2022-08-03T07:51:25;2.45;;;2.25;;
19946;SDS011;10135;50.702;7.276;2022-08-03T07:53:25;2.30;;;2.20;;
19946;SDS011;10135;50.702;7.276;2022-08-03T07:55:26;2.15;;;2.05;;
19946;SDS011;10135;50.702;7.276;2022-08-03T07:57:27;2.15;;;2.05;;
19946;SDS011;10135;50.702;7.276;2022-08-03T07:59:28;2.78;;;2.58;;
19946;SDS011;10135;50.702;7.276;2022-08-03T08:01:28;3.10;;;2.20;;
19946;SDS011;10135;50.702;7.276;2022-08-03T08:03:31;2.63;;;2.13;;
19946;SDS011;10135;50.702;7.276;2022-08-03T08:05:32;2.10;;;2.00;;
19946;SDS011;10135;50.702;7.276;2022-08-03T08:07:33;3.15;;;2.00;;
19946;SDS011;10135;50.702;7.276;2022-08-03T08:09:34;2.00;;;1.90;;
19946;SDS011;10135;50.702;7.276;2022-08-03T08:11:36;2.22;;;2.13;;
19946;SDS011;10135;50.702;7.276;2022-08-03T08:13:37;2.42;;;1.85;;
19946;SDS011;10135;50.702;7.276;2022-08-03T08:15:37;2.22;;;2.05;;
19946;SDS011;10135;50.702;7.276;2022-08-03T08:17:42;2.10;;;2.00;;
19946;SDS011;10135;50.702;7.276;2022-08-03T08:19:45;2.20;;;2.00;;
19946;SDS011;10135;50.702;7.276;2022-08-03T08:21:46;1.67;;;1.67;;
19946;SDS011;10135;50.702;7.276;2022-08-03T08:23:46;2.08;;;1.98;;
19946;SDS011;10135;50.702;7.276;2022-08-03T08:25:47;1.95;;;1.85;;
19946;SDS011;10135;50.702;7.276;2022-08-03T08:27:52;2.25;;;2.13;;
19946;SDS011;10135;50.702;7.276;2022-08-03T08:29:53;1.67;;;1.67;;
19946;SDS011;10135;50.702;7.276;2022-08-03T08:31:53;1.92;;;1.83;;
19946;SDS011;10135;50.702;7.276;2022-08-03T08:33:54;1.60;;;1.60;;
19946;SDS011;10135;50.702;7.276;2022-08-03T08:35:55;1.90;;;1.80;;
19946;SDS011;10135;50.702;7.276;2022-08-03T08:37:55;1.95;;;1.80;;
19946;SDS011;10135;50.702;7.276;2022-08-03T08:39:58;1.90;;;1.80;;
19946;SDS011;10135;50.702;7.276;2022-08-03T08:41:59;1.85;;;1.70;;
19946;SDS011;10135;50.702;7.276;2022-08-03T08:44:00;1.55;;;1.50;;
19946;SDS011;10135;50.702;7.276;2022-08-03T08:46:02;2.20;;;2.10;;
19946;SDS011;10135;50.702;7.276;2022-08-03T08:48:04;2.00;;;1.80;;
19946;SDS011;10135;50.702;7.276;2022-08-03T08:50:06;1.58;;;1.58;;
19946;SDS011;10135;50.702;7.276;2022-08-03T08:52:08;1.65;;;1.55;;
19946;SDS011;10135;50.702;7.276;2022-08-03T08:54:10;1.70;;;1.70;;
19946;SDS011;10135;50.702;7.276;2022-08-03T08:56:12;1.73;;;1.70;;
19946;SDS011;10135;50.702;7.276;2022-08-03T08:58:15;1.85;;;1.75;;
19946;SDS011;10135;50.702;7.276;2022-08-03T09:00:19;1.83;;;1.73;;
19946;SDS011;10135;50.702;7.276;2022-08-03T09:02:20;1.70;;;1.70;;
19946;SDS011;10135;50.702;7.276;2022-08-03T09:04:25;2.00;;;1.90;;
19946;SDS011;10135;50.702;7.276;2022-08-03T09:06:30;2.47;;;1.80;;
19946;SDS011;10135;50.702;7.276;2022-08-03T09:08:31;1.70;;;1.60;;
19946;SDS011;10135;50.702;7.276;2022-08-03T09:10:32;1.80;;;1.70;;
19946;SDS011;10135;50.702;7.276;2022-08-03T09:12:43;2.10;;;1.80;;
19946;SDS011;10135;50.702;7.276;2022-08-03T09:14:46;1.88;;;1.77;;
19946;SDS011;10135;50.702;7.276;2022-08-03T09:16:55;1.92;;;1.85;;
19946;SDS011;10135;50.702;7.276;2022-08-03T09:19:09;1.63;;;1.60;;
19946;SDS011;10135;50.702;7.276;2022-08-03T09:21:17;1.90;;;1.80;;
19946;SDS011;10135;50.702;7.276;2022-08-03T09:23:42;1.75;;;1.73;;
19946;SDS011;10135;50.702;7.276;2022-08-03T09:25:56;1.67;;;1.67;;
19946;SDS011;10135;50.702;7.276;2022-08-03T09:28:10;1.80;;;1.80;;
19946;SDS011;10135;50.702;7.276;2022-08-03T09:30:14;1.63;;;1.63;;
19946;SDS011;10135;50.702;7.276;2022-08-03T09:32:21;4.18;;;1.60;;
19946;SDS011;10135;50.702;7.276;2022-08-03T09:34:24;1.65;;;1.55;;
19946;SDS011;10135;50.702;7.276;2022-08-03T09:36:46;2.67;;;1.85;;
19946;SDS011;10135;50.702;7.276;2022-08-03T09:39:01;1.70;;;1.65;;
19946;SDS011;10135;50.702;7.276;2022-08-03T09:41:16;2.40;;;1.60;;
19946;SDS011;10135;50.702;7.276;2022-08-03T09:43:17;1.90;;;1.60;;
19946;SDS011;10135;50.702;7.276;2022-08-03T09:45:25;1.80;;;1.70;;
19946;SDS011;10135;50.702;7.276;2022-08-03T09:47:33;1.98;;;1.67;;
19946;SDS011;10135;50.702;7.276;2022-08-03T09:49:38;2.47;;;1.70;;
19946;SDS011;10135;50.702;7.276;2022-08-03T09:51:41;2.28;;;1.50;;
19946;SDS011;10135;50.702;7.276;2022-08-03T09:53:42;1.70;;;1.70;;
19946;SDS011;10135;50.702;7.276;2022-08-03T09:55:53;1.77;;;1.67;;
19946;SDS011;10135;50.702;7.276;2022-08-03T09:58:05;1.50;;;1.50;;
19946;SDS011;10135;50.702;7.276;2022-08-03T10:00:09;3.15;;;1.75;;
19946;SDS011;10135;50.702;7.276;2022-08-03T10:02:20;1.50;;;1.40;;
19946;SDS011;10135;50.702;7.276;2022-08-03T10:04:26;1.60;;;1.50;;
19946;SDS011;10135;50.702;7.276;2022-08-03T10:06:27;1.70;;;1.70;;
19946;SDS011;10135;50.702;7.276;2022-08-03T10:08:28;1.52;;;1.42;;
19946;SDS011;10135;50.702;7.276;2022-08-03T10:10:31;1.98;;;1.88;;
19946;SDS011;10135;50.702;7.276;2022-08-03T10:12:45;1.50;;;1.50;;
19946;SDS011;10135;50.702;7.276;2022-08-03T10:14:48;1.90;;;1.52;;
19946;SDS011;10135;50.702;7.276;2022-08-03T10:16:49;1.77;;;1.60;;
19946;SDS011;10135;50.702;7.276;2022-08-03T10:18:49;1.50;;;1.50;;
19946;SDS011;10135;50.702;7.276;2022-08-03T10:20:54;1.60;;;1.60;;
19946;SDS011;10135;50.702;7.276;2022-08-03T10:23:06;1.92;;;1.83;;
19946;SDS011;10135;50.702;7.276;2022-08-03T10:25:10;1.30;;;1.30;;
19946;SDS011;10135;50.702;7.276;2022-08-03T10:27:13;1.73;;;1.63;;
19946;SDS011;10135;50.702;7.276;2022-08-03T10:29:17;2.88;;;1.65;;
19946;SDS011;10135;50.702;7.276;2022-08-03T10:31:30;1.50;;;1.40;;
19946;SDS011;10135;50.702;7.276;2022-08-03T10:33:42;1.77;;;1.67;;
19946;SDS011;10135;50.702;7.276;2022-08-03T10:35:49;2.75;;;1.50;;
19946;SDS011;10135;50.702;7.276;2022-08-03T10:38:30;1.50;;;1.50;;
19946;SDS011;10135;50.702;7.276;2022-08-03T10:40:37;1.92;;;1.80;;
19946;SDS011;10135;50.702;7.276;2022-08-03T10:42:39;1.67;;;1.50;;
19946;SDS011;10135;50.702;7.276;2022-08-03T10:44:45;1.50;;;1.40;;
19946;SDS011;10135;50.702;7.276;2022-08-03T10:46:51;1.88;;;1.33;;
19946;SDS011;10135;50.702;7.276;2022-08-03T10:48:53;3.20;;;1.48;;
19946;SDS011;10135;50.702;7.276;2022-08-03T10:50:55;1.50;;;1.40;;
19946;SDS011;10135;50.702;7.276;2022-08-03T10:53:00;1.50;;;1.50;;
19946;SDS011;10135;50.702;7.276;2022-08-03T10:58:04;1.65;;;1.55;;
19946;SDS011;10135;50.702;7.276;2022-08-03T11:00:05;3.83;;;1.95;;
19946;SDS011;10135;50.702;7.276;2022-08-03T11:02:07;1.60;;;1.50;;
19946;SDS011;10135;50.702;7.276;2022-08-03T11:04:18;3.38;;;1.73;;
19946;SDS011;10135;50.702;7.276;2022-08-03T11:06:23;1.80;;;1.70;;
19946;SDS011;10135;50.702;7.276;2022-08-03T11:08:26;1.77;;;1.67;;
19946;SDS011;10135;50.702;7.276;2022-08-03T11:10:30;1.95;;;1.63;;
19946;SDS011;10135;50.702;7.276;2022-08-03T11:12:31;1.33;;;1.30;;
19946;SDS011;10135;50.702;7.276;2022-08-03T11:14:44;1.60;;;1.60;;
19946;SDS011;10135;50.702;7.276;2022-08-03T11:16:48;1.35;;;1.35;;
19946;SDS011;10135;50.702;7.276;2022-08-03T11:19:07;1.70;;;1.60;;
19946;SDS011;10135;50.702;7.276;2022-08-03T11:21:09;1.55;;;1.52;;
19946;SDS011;10135;50.702;7.276;2022-08-03T11:23:10;1.88;;;1.70;;
19946;SDS011;10135;50.702;7.276;2022-08-03T11:25:11;1.67;;;1.67;;
19946;SDS011;10135;50.702;7.276;2022-08-03T11:29:28;1.63;;;1.63;;
19946;SDS011;10135;50.702;7.276;2022-08-03T11:33:30;5.43;;;1.90;;
19946;SDS011;10135;50.702;7.276;2022-08-03T11:35:32;1.67;;;1.67;;
19946;SDS011;10135;50.702;7.276;2022-08-03T11:40:01;1.40;;;1.40;;
19946;SDS011;10135;50.702;7.276;2022-08-03T11:42:37;4.18;;;1.90;;
19946;SDS011;10135;50.702;7.276;2022-08-03T11:44:39;2.40;;;1.55;;
19946;SDS011;10135;50.702;7.276;2022-08-03T11:46:40;1.77;;;1.67;;
19946;SDS011;10135;50.702;7.276;2022-08-03T11:48:42;1.70;;;1.60;;
19946;SDS011;10135;50.702;7.276;2022-08-03T11:50:46;3.28;;;1.70;;
19946;SDS011;10135;50.702;7.276;2022-08-03T11:52:47;1.80;;;1.70;;
19946;SDS011;10135;50.702;7.276;2022-08-03T11:54:51;1.60;;;1.60;;
19946;SDS011;10135;50.702;7.276;2022-08-03T11:56:53;2.22;;;1.60;;
19946;SDS011;10135;50.702;7.276;2022-08-03T11:58:55;2.10;;;1.77;;
19946;SDS011;10135;50.702;7.276;2022-08-03T12:01:06;1.52;;;1.52;;
19946;SDS011;10135;50.702;7.276;2022-08-03T12:03:08;1.70;;;1.60;;
19946;SDS011;10135;50.702;7.276;2022-08-03T12:05:15;1.70;;;1.70;;
19946;SDS011;10135;50.702;7.276;2022-08-03T12:07:16;1.58;;;1.48;;
19946;SDS011;10135;50.702;7.276;2022-08-03T12:09:18;1.75;;;1.65;;
19946;SDS011;10135;50.702;7.276;2022-08-03T12:11:18;1.63;;;1.63;;
19946;SDS011;10135;50.702;7.276;2022-08-03T12:13:19;1.80;;;1.70;;
19946;SDS011;10135;50.702;7.276;2022-08-03T12:15:25;1.73;;;1.63;;
19946;SDS011;10135;50.702;7.276;2022-08-03T12:17:38;1.75;;;1.73;;
19946;SDS011;10135;50.702;7.276;2022-08-03T12:19:43;1.67;;;1.50;;
19946;SDS011;10135;50.702;7.276;2022-08-03T12:21:44;2.55;;;1.60;;
19946;SDS011;10135;50.702;7.276;2022-08-03T12:23:47;1.52;;;1.50;;
19946;SDS011;10135;50.702;7.276;2022-08-03T12:25:48;1.50;;;1.50;;
19946;SDS011;10135;50.702;7.276;2022-08-03T12:27:49;1.50;;;1.50;;
19946;SDS011;10135;50.702;7.276;2022-08-03T12:29:54;1.60;;;1.50;;
19946;SDS011;10135;50.702;7.276;2022-08-03T12:31:57;1.45;;;1.45;;
19946;SDS011;10135;50.702;7.276;2022-08-03T12:34:01;1.40;;;1.40;;
19946;SDS011;10135;50.702;7.276;2022-08-03T12:36:06;1.60;;;1.60;;
19946;SDS011;10135;50.702;7.276;2022-08-03T12:38:09;1.88;;;1.77;;
19946;SDS011;10135;50.702;7.276;2022-08-03T12:40:11;1.40;;;1.40;;
19946;SDS011;10135;50.702;7.276;2022-08-03T12:42:14;1.67;;;1.58;;